Time;durP1;ratioP1;P1;durP2;ratioP2;P2;SDS_P1;SDS_P2;PMS_P1;PMS_P2;Temp;Humidity;BMP_temperature;BMP_pressure;BME280_temperature;BME280_humidity;BME280_pressure;Samples;Min_cycle;Max_cycle;Signal;HPM_P1;HPM_P2
2022/08/18 03:36:10;;;;;;;;;;;;;;;13.04;100.00;99235.03;6150893;23;19927;-84
2022/08/18 03:38:36;;;;;;;;;;;;;;;13.06;100.00;99240.28;6150629;23;19959;-92
2022/08/18 03:41:02;;;;;;;;;;;;;;;13.26;100.00;99231.91;6150615;23;19917;-86
2022/08/18 03:43:28;;;;;;;;;;;;;;;13.24;100.00;99233.81;6150544;23;19938;-88
2022/08/18 03:45:54;;;;;;;;;;;;;;;13.10;100.00;99239.16;6150479;23;20087;-83
2022/08/18 03:48:20;;;;;;;;;;;;;;;13.09;100.00;99242.75;6148958;23;19917;-83
2022/08/18 03:50:47;;;;;;;;;;;;;;;13.33;100.00;99236.88;6150409;23;20217;-85
2022/08/18 03:53:12;;;;;;;;;;;;;;;13.19;100.00;99249.19;6150382;23;19913;-84
2022/08/18 03:55:39;;;;;;;;;;;;;;;13.13;100.00;99241.63;6150241;23;19917;-83
2022/08/18 03:58:04;;;;;;;;;;;;;;;13.25;100.00;99232.00;6150467;23;19909;-87
2022/08/18 04:00:30;;;;;;;;;;;;;;;13.32;100.00;99238.63;6150194;23;20372;-87
2022/08/18 04:02:58;;;;;;;;;;;;;;;13.26;100.00;99229.25;6148752;23;19987;-86
2022/08/18 04:05:23;;;;;;;;;;;;;;;13.18;100.00;99228.88;6150310;23;19942;-88
2022/08/18 04:07:48;;;;;;;;;;;;;;;13.32;100.00;99222.66;6150062;23;19916;-85
2022/08/18 04:10:14;;;;;;;;;;;;;;;13.36;100.00;99226.03;6150141;23;19981;-84
2022/08/18 04:12:40;;;;;;;;;;;;;;;13.30;100.00;99229.06;6150279;23;19913;-85
2022/08/18 04:15:05;;;;;;;;;;;;;;;13.21;100.00;99218.06;6150378;23;19920;-89
2022/08/18 04:17:31;;;;;;;;;;;;;;;13.43;100.00;99217.59;6148792;23;19915;-90
2022/08/18 04:19:57;;;;;;;;;;;;;;;13.37;100.00;99215.31;6150005;23;19916;-88
2022/08/18 04:22:23;;;;;;;;;;;;;;;13.29;100.00;99217.56;6150064;23;19923;-84
2022/08/18 04:24:49;;;;;;;;;;;;;;;13.38;100.00;99211.69;6149886;23;19966;-84
2022/08/18 04:27:14;;;;;;;;;;;;;;;13.50;100.00;99212.72;6150127;23;20286;-84
2022/08/18 04:29:39;;;;;;;;;;;;;;;13.42;100.00;99213.19;6149924;23;20338;-84
2022/08/18 04:32:05;;;;;;;;;;;;;;;13.34;100.00;99214.63;6148448;23;19924;-84
2022/08/18 04:34:31;;;;;;;;;;;;;;;13.56;100.00;99222.09;6149824;23;19992;-83
2022/08/18 04:36:57;;;;;;;;;;;;;;;13.45;100.00;99217.50;6150068;22;20229;-89
2022/08/18 04:39:22;;;;;;;;;;;;;;;13.35;100.00;99221.66;6149845;23;19919;-89
2022/08/18 04:41:48;;;;;;;;;;;;;;;13.54;100.00;99227.53;6149781;23;20317;-87
2022/08/18 07:51:28;;;;;;;;;;;;;;;13.27;100.00;99299.25;6124227;23;19923;-87
2022/08/18 07:54:17;;;;;;;;;;;;;;;13.35;100.00;99291.69;6119618;23;19921;-87
2022/08/18 07:56:57;;;;;;;;;;;;;;;13.50;100.00;99297.00;6121096;23;20399;-90
2022/08/18 07:59:26;;;;;;;;;;;;;;;13.41;100.00;99295.78;6121102;23;19940;-82
2022/08/18 08:02:03;;;;;;;;;;;;;;;13.27;100.00;99300.13;6120873;23;20237;-88
2022/08/18 08:04:43;;;;;;;;;;;;;;;13.29;100.00;99296.50;6117870;23;19940;-85
2022/08/18 08:07:11;;;;;;;;;;;;;;;13.28;100.00;99295.66;6119627;23;19967;-83
2022/08/18 08:09:39;;;;;;;;;;;;;;;13.44;100.00;99295.59;6119614;23;19953;-84
2022/08/18 08:12:16;;;;;;;;;;;;;;;13.38;100.00;99293.31;6120043;23;19951;-83
2022/08/18 08:14:50;;;;;;;;;;;;;;;13.26;100.00;99290.44;6119855;23;19962;-91
2022/08/18 08:17:35;;;;;;;;;;;;;;;13.24;100.00;99284.38;6120334;23;19917;-82
2022/08/18 08:20:03;;;;;;;;;;;;;;;13.21;100.00;99276.56;6119677;23;19917;-82
2022/08/18 08:22:40;;;;;;;;;;;;;;;13.43;100.00;99267.25;6120581;23;19913;-83
2022/08/18 08:25:06;;;;;;;;;;;;;;;13.41;100.00;99269.19;6121227;23;19916;-87
2022/08/18 08:27:33;;;;;;;;;;;;;;;13.38;100.00;99266.72;6120996;23;19921;-86
2022/08/18 08:30:25;;;;;;;;;;;;;;;13.31;100.00;99271.53;6122638;23;20249;-90
2022/08/18 08:33:19;;;;;;;;;;;;;;;13.37;100.00;99275.63;6113173;23;20325;-87
2022/08/18 08:35:48;;;;;;;;;;;;;;;13.51;100.00;99280.94;6089909;23;19966;-89
2022/08/18 08:38:19;;;;;;;;;;;;;;;13.53;100.00;99268.41;6122665;23;19967;-87
2022/08/18 08:40:44;;;;;;;;;;;;;;;13.40;100.00;99272.78;6121884;23;19945;-83
2022/08/18 08:43:11;;;;;;;;;;;;;;;13.39;100.00;99266.63;6122043;23;19920;-83
2022/08/18 08:45:41;;;;;;;;;;;;;;;13.47;100.00;99268.78;6120769;23;19913;-83
2022/08/18 08:48:17;;;;;;;;;;;;;;;13.54;100.00;99267.44;6119080;23;19913;-89
2022/08/18 08:50:48;;;;;;;;;;;;;;;13.45;100.00;99257.41;6132551;23;19951;-88
2022/08/18 08:53:16;;;;;;;;;;;;;;;13.31;100.00;99274.19;6124903;23;19940;-82
2022/08/18 08:55:44;;;;;;;;;;;;;;;13.47;100.00;99278.59;6151119;23;20336;-86
2022/08/18 08:58:13;;;;;;;;;;;;;;;13.63;100.00;99289.97;6124925;23;19921;-82
2022/08/18 09:00:39;;;;;;;;;;;;;;;13.48;100.00;99299.75;6150718;23;19923;-82
2022/08/18 09:03:08;;;;;;;;;;;;;;;13.41;100.00;99306.44;6149894;23;19936;-82
2022/08/18 09:05:55;;;;;;;;;;;;;;;13.53;100.00;99308.34;6125123;23;19924;-81
2022/08/18 09:08:32;;;;;;;;;;;;;;;13.63;100.00;99306.78;6150703;23;20001;-81
2022/08/18 09:11:10;;;;;;;;;;;;;;;13.64;100.00;99297.00;6151173;23;19923;-83
2022/08/18 09:13:45;;;;;;;;;;;;;;;13.55;100.00;99290.47;6125415;23;20344;-84
2022/08/18 09:16:10;;;;;;;;;;;;;;;13.39;100.00;99293.22;6125481;23;20389;-85
2022/08/18 09:18:44;;;;;;;;;;;;;;;13.46;100.00;99296.34;6150272;22;19916;-85
2022/08/18 09:21:28;;;;;;;;;;;;;;;13.69;100.00;99294.03;6150537;22;19956;-82
2022/08/18 09:24:03;;;;;;;;;;;;;;;13.66;100.00;99294.22;6150236;23;19920;-83
2022/08/18 09:26:31;;;;;;;;;;;;;;;13.49;100.00;99300.63;6124466;23;19921;-82
2022/08/18 09:29:09;;;;;;;;;;;;;;;13.45;100.00;99289.34;6150520;23;19913;-82
2022/08/18 09:31:35;;;;;;;;;;;;;;;13.59;100.00;99289.31;6150339;23;19986;-82
2022/08/18 09:34:30;;;;;;;;;;;;;;;13.65;100.00;99292.53;6123391;23;20278;-82
2022/08/18 09:37:07;;;;;;;;;;;;;;;13.62;100.00;99283.81;6150254;23;19952;-84
2022/08/18 09:42:27;;;;;;;;;;;;;;;13.51;100.00;99293.41;6151280;23;19959;-82
2022/08/18 09:44:54;;;;;;;;;;;;;;;13.59;100.00;99277.81;6151240;23;19917;-84
2022/08/18 09:47:19;;;;;;;;;;;;;;;13.69;100.00;99283.38;6151332;23;19915;-85
2022/08/18 09:49:52;;;;;;;;;;;;;;;13.65;100.00;99274.75;6124003;23;19912;-82
2022/08/18 09:52:20;;;;;;;;;;;;;;;13.58;100.00;99255.66;6151245;23;19921;-84
2022/08/18 09:54:52;;;;;;;;;;;;;;;13.57;100.00;99239.78;6125211;23;20286;-89
2022/08/18 09:57:36;;;;;;;;;;;;;;;13.68;100.00;99244.44;6151332;23;19917;-90
2022/08/18 10:00:01;;;;;;;;;;;;;;;13.68;100.00;99244.44;6151504;23;19982;-92
2022/08/18 10:02:30;;;;;;;;;;;;;;;13.54;100.00;99251.47;6125229;23;20363;-85
2022/08/18 10:05:08;;;;;;;;;;;;;;;13.47;100.00;99249.31;6123616;23;19991;-84
2022/08/18 10:07:34;;;;;;;;;;;;;;;13.57;100.00;99242.44;6151294;23;19913;-85
2022/08/18 10:10:03;;;;;;;;;;;;;;;13.63;100.00;99234.91;6151018;23;20379;-91
2022/08/18 10:12:28;;;;;;;;;;;;;;;13.61;100.00;99233.31;6125433;23;19921;-90
2022/08/18 10:15:07;;;;;;;;;;;;;;;13.56;100.00;99249.59;6151014;23;19919;-88
2022/08/18 10:17:46;;;;;;;;;;;;;;;13.59;100.00;99256.50;6151281;23;19912;-90
2022/08/18 10:20:21;;;;;;;;;;;;;;;13.71;100.00;99250.41;6124048;23;19920;-88
2022/08/18 10:22:47;;;;;;;;;;;;;;;13.74;100.00;99255.53;6124973;23;19954;-89
2022/08/18 10:25:28;;;;;;;;;;;;;;;13.61;100.00;99250.16;6151167;23;19944;-83
2022/08/18 10:27:56;;;;;;;;;;;;;;;19.45;100.00;99224.78;6151499;23;19959;-89
2022/08/18 10:30:28;;;;;;;;;;;;;;;15.24;100.00;99242.84;6150989;23;19916;-88
2022/08/18 10:32:59;;;;;;;;;;;;;;;14.51;100.00;99238.97;6150810;23;19966;-91
2022/08/18 10:35:44;;;;;;;;;;;;;;;;;;;;;
2022/08/18 10:38:23;;;;;;;;;;;;;;;14.05;100.00;99258.00;6151034;23;20313;-88
2022/08/18 10:41:24;;;;;;;;;;;;;;;13.89;100.00;99266.16;6126656;23;19924;-92
2022/08/18 10:49:26;;;;;;;;;;;;;;;14.04;100.00;99278.47;6113908;22;20009;-89
2022/08/18 10:52:23;;;;;;;;;;;;;;;;;;;;;
2022/08/18 10:55:08;;;;;;;;;;;;;;;13.90;100.00;99302.50;6151062;23;20004;-88
2022/08/18 10:57:39;;;;;;;;;;;;;;;13.86;100.00;99300.97;6150866;23;19912;-87
2022/08/18 11:00:35;;;;;;;;;;;;;;;13.78;100.00;99304.94;6124650;23;19923;-88
2022/08/18 11:03:09;;;;;;;;;;;;;;;13.78;100.00;99298.78;6123460;23;20222;-87
2022/08/18 11:06:11;;;;;;;;;;;;;;;13.87;100.00;99292.03;6151473;22;19951;-87
2022/08/18 11:08:52;;;;;;;;;;;;;;;;;;;;;
2022/08/18 11:14:05;;;;;;;;;;;;;;;13.72;100.00;99272.53;6276127;22;19942;-87
2022/08/18 11:16:41;;;;;;;;;;;;;;;13.63;100.00;99263.34;6248864;22;19919;-86
2022/08/18 11:19:37;;;;;;;;;;;;;;;13.77;100.00;99255.34;6247332;22;19912;-86
2022/08/18 11:22:05;;;;;;;;;;;;;;;13.86;100.00;99248.53;6270039;22;19918;-87
2022/08/18 11:24:55;;;;;;;;;;;;;;;;;;;;;
2022/08/18 11:27:32;;;;;;;;;;;;;;;13.80;100.00;99249.81;6275826;22;20002;-87
2022/08/18 11:30:02;;;;;;;;;;;;;;;13.71;100.00;99252.22;6275667;22;19942;-87
2022/08/18 11:32:48;;;;;;;;;;;;;;;13.60;100.00;99250.25;6275623;22;19915;-88
2022/08/18 11:35:26;;;;;;;;;;;;;;;13.78;100.00;99257.03;6241178;22;19911;-86
2022/08/18 11:38:30;;;;;;;;;;;;;;;13.86;100.00;99256.53;6248869;22;20056;-85
2022/08/18 11:41:31;;;;;;;;;;;;;;;13.85;100.00;99257.50;6269887;22;19918;-85
2022/08/18 11:44:16;;;;;;;;;;;;;;;13.81;100.00;99256.00;6211782;22;19919;-87
2022/08/18 11:46:41;;;;;;;;;;;;;;;13.72;100.00;99251.25;6275409;22;19922;-87
2022/08/18 11:49:21;;;;;;;;;;;;;;;13.66;100.00;99241.88;6247156;22;19907;-87
2022/08/18 11:52:14;;;;;;;;;;;;;;;13.66;100.00;99241.00;6275461;22;19911;-85
2022/08/18 11:54:47;;;;;;;;;;;;;;;13.77;100.00;99236.69;6248496;22;20421;-86
2022/08/18 11:57:39;;;;;;;;;;;;;;;13.84;100.00;99233.66;6275946;22;19918;-85
2022/08/18 12:00:25;;;;;;;;;;;;;;;13.87;100.00;99230.78;6277571;22;19910;-85
2022/08/18 12:03:03;;;;;;;;;;;;;;;13.77;100.00;99233.19;6277676;22;19990;-86
2022/08/18 12:05:52;;;;;;;;;;;;;;;13.70;100.00;99227.38;6275791;22;19918;-87
2022/08/18 12:08:52;;;;;;;;;;;;;;;13.56;100.00;99222.09;6249985;22;20110;-86
2022/08/18 12:11:20;;;;;;;;;;;;;;;13.64;100.00;99214.47;6277896;22;19938;-86
2022/08/18 12:13:55;;;;;;;;;;;;;;;13.67;100.00;99218.75;6275717;22;19915;-85
2022/08/18 12:16:42;;;;;;;;;;;;;;;13.70;100.00;99211.41;6250678;22;19915;-85
2022/08/18 12:19:15;;;;;;;;;;;;;;;13.74;100.00;99206.78;6275788;22;19961;-85
2022/08/18 12:21:43;;;;;;;;;;;;;;;13.74;100.00;99209.44;6277380;22;19912;-85
2022/08/18 12:24:14;;;;;;;;;;;;;;;13.67;100.00;99214.28;6277377;22;19990;-89
2022/08/18 12:26:40;;;;;;;;;;;;;;;13.76;100.00;99215.50;6277234;22;19911;-85
2022/08/18 12:29:05;;;;;;;;;;;;;;;13.75;100.00;99213.78;6250512;22;20001;-88
2022/08/18 12:31:31;;;;;;;;;;;;;;;13.62;100.00;99225.25;6277402;22;19988;-86
2022/08/18 12:33:58;;;;;;;;;;;;;;;13.54;100.00;99222.19;6248518;22;19919;-85
2022/08/18 12:36:48;;;;;;;;;;;;;;;13.70;100.00;99219.41;6250720;22;19949;-92
2022/08/18 12:39:14;;;;;;;;;;;;;;;13.79;100.00;99215.31;6236436;22;19934;-86
2022/08/18 12:42:04;;;;;;;;;;;;;;;13.71;100.00;99213.13;6275522;22;20319;-88
2022/08/18 12:44:30;;;;;;;;;;;;;;;13.66;100.00;99212.59;6276186;22;20405;-88
2022/08/18 12:46:56;;;;;;;;;;;;;;;13.50;100.00;99215.38;6277219;22;19915;-86
2022/08/18 12:49:25;;;;;;;;;;;;;;;13.65;100.00;99218.00;6275388;22;20025;-88
2022/08/18 12:51:58;;;;;;;;;;;;;;;13.72;100.00;99220.19;6277129;22;19919;-85
2022/08/18 12:54:26;;;;;;;;;;;;;;;13.69;100.00;99227.50;6277538;22;19994;-89
2022/08/18 12:57:06;;;;;;;;;;;;;;;;;;;;;
2022/08/18 12:59:34;;;;;;;;;;;;;;;13.60;100.00;99223.63;6277534;22;20293;-88
2022/08/18 13:02:00;;;;;;;;;;;;;;;13.75;100.00;99219.97;6249536;22;20010;-90
2022/08/18 13:04:28;;;;;;;;;;;;;;;13.73;100.00;99219.19;6274334;22;19943;-90
2022/08/18 13:06:57;;;;;;;;;;;;;;;13.66;100.00;99214.38;6249799;22;19942;-88
2022/08/18 13:09:23;;;;;;;;;;;;;;;13.56;100.00;99224.75;6249599;22;19942;-90
2022/08/18 13:12:06;;;;;;;;;;;;;;;13.75;100.00;99229.75;6249984;22;19942;-92
2022/08/18 13:14:34;;;;;;;;;;;;;;;13.81;100.00;99224.03;6275759;22;19911;-88
2022/08/18 13:17:00;;;;;;;;;;;;;;;13.72;100.00;99224.63;6275749;22;19982;-88
2022/08/18 13:19:46;;;;;;;;;;;;;;;13.63;100.00;99213.63;6248234;22;19984;-88
2022/08/18 13:22:11;;;;;;;;;;;;;;;13.59;100.00;99206.81;6277019;22;19922;-89
2022/08/18 13:24:39;;;;;;;;;;;;;;;13.79;100.00;99208.16;6276963;22;19990;-88
2022/08/18 13:27:04;;;;;;;;;;;;;;;13.74;100.00;99207.63;6276576;22;19918;-88
2022/08/18 13:29:32;;;;;;;;;;;;;;;13.73;100.00;99205.03;6250038;22;19955;-86
2022/08/18 13:32:06;;;;;;;;;;;;;;;13.70;100.00;99206.09;6249904;22;19911;-87
2022/08/18 13:34:32;;;;;;;;;;;;;;;13.83;100.00;99199.97;6248307;22;19946;-85
2022/08/18 13:36:57;;;;;;;;;;;;;;;13.79;100.00;99202.00;6276749;22;19936;-85
2022/08/18 13:39:32;;;;;;;;;;;;;;;13.72;100.00;99203.31;6276815;22;19919;-87
2022/08/18 13:42:00;;;;;;;;;;;;;;;13.66;100.00;99196.63;6276544;22;19995;-89
2022/08/18 13:44:25;;;;;;;;;;;;;;;13.88;100.00;99192.53;6249492;22;19943;-88
2022/08/18 13:46:56;;;;;;;;;;;;;;;13.84;100.00;99185.72;6276716;22;19911;-89
2022/08/18 13:49:24;;;;;;;;;;;;;;;13.75;100.00;99184.50;6274891;22;19923;-89
2022/08/18 13:51:52;;;;;;;;;;;;;;;13.65;100.00;99176.25;6249543;22;19980;-85
2022/08/18 13:54:39;;;;;;;;;;;;;;;;;;;;;
2022/08/18 13:57:05;;;;;;;;;;;;;;;13.90;100.00;99183.50;6276482;22;20282;-87
2022/08/18 13:59:37;;;;;;;;;;;;;;;13.76;100.00;99184.41;6276944;22;19950;-90
2022/08/18 14:02:13;;;;;;;;;;;;;;;13.65;100.00;99178.06;6249148;22;19937;-89
2022/08/18 14:04:57;;;;;;;;;;;;;;;13.84;100.00;99178.56;6247976;22;19943;-89
2022/08/18 14:07:37;;;;;;;;;;;;;;;;;;;;;
2022/08/18 14:10:06;;;;;;;;;;;;;;;13.89;100.00;99180.94;6274605;22;20003;-90
2022/08/18 14:12:59;;;;;;;;;;;;;;;13.85;100.00;99172.31;6274843;22;19926;-90
2022/08/18 14:15:27;;;;;;;;;;;;;;;13.75;100.00;99174.72;6274665;22;20243;-86
2022/08/18 14:17:52;;;;;;;;;;;;;;;13.78;100.00;99170.97;6276043;22;19930;-85
2022/08/18 14:28:33;;;;;;;;;;;;;;;13.80;100.00;99163.75;6274807;22;19967;-86
2022/08/18 14:30:59;;;;;;;;;;;;;;;14.35;100.00;99160.03;6249697;22;19912;-88
2022/08/18 14:33:25;;;;;;;;;;;;;;;14.52;100.00;99160.72;6247837;22;20284;-87
2022/08/18 14:35:51;;;;;;;;;;;;;;;15.32;100.00;99156.91;6249075;22;19921;-89
2022/08/18 14:39:22;;;;;;;;;;;;;;;14.93;100.00;99159.63;6276088;22;19915;-89
2022/08/18 14:44:05;;;;;;;;;;;;;;;13.83;100.00;99147.56;6180540;22;20377;-88
2022/08/18 14:46:31;;;;;;;;;;;;;;;13.39;100.00;99152.19;6154412;23;19954;-88
2022/08/18 14:48:56;;;;;;;;;;;;;;;13.53;100.00;99146.00;6153658;23;19942;-87
2022/08/18 14:51:22;;;;;;;;;;;;;;;13.31;100.00;99153.63;6180465;23;19916;-87
2022/08/18 14:53:47;;;;;;;;;;;;;;;13.39;100.00;99144.22;6180501;23;19912;-88
2022/08/18 14:56:15;;;;;;;;;;;;;;;13.29;100.00;99148.41;6180718;23;19961;-87
2022/08/18 14:58:40;;;;;;;;;;;;;;;13.28;100.00;99149.34;6179798;23;19912;-87
2022/08/18 15:04:16;;;;;;;;;;;;;;;13.23;100.00;99154.94;6147891;23;19924;-90
2022/08/18 15:07:01;;;;;;;;;;;;;;;13.40;100.00;99153.03;6151260;23;19958;-89
2022/08/18 15:12:29;;;;;;;;;;;;;;;13.18;100.00;99151.75;6139360;22;19928;-89
2022/08/18 15:14:54;;;;;;;;;;;;;;;13.34;100.00;99158.75;6149144;23;19913;-89
2022/08/18 15:17:31;;;;;;;;;;;;;;;13.20;100.00;99157.81;6147631;23;19995;-87
2022/08/18 15:19:56;;;;;;;;;;;;;;;13.35;100.00;99149.81;6148163;23;20335;-89
2022/08/18 15:25:40;;;;;;;;;;;;;;;13.20;100.00;99154.31;6150649;23;19928;-89
2022/08/18 15:28:07;;;;;;;;;;;;;;;13.41;100.00;99162.75;6150450;23;19948;-88
2022/08/18 15:30:32;;;;;;;;;;;;;;;13.24;100.00;99155.78;6150493;23;19913;-88
2022/08/18 15:32:57;;;;;;;;;;;;;;;13.47;100.00;99154.38;6150291;23;19920;-88
2022/08/18 15:36:04;;;;;;;;;;;;;;;13.35;100.00;99153.34;6148111;23;20005;-88
2022/08/18 15:38:32;;;;;;;;;;;;;;;13.27;100.00;99160.94;6149640;23;19917;-87
2022/08/18 15:40:58;;;;;;;;;;;;;;;13.43;100.00;99155.50;6148178;23;20305;-88
2022/08/18 15:43:27;;;;;;;;;;;;;;;13.23;100.00;99160.28;6150635;23;19913;-87
2022/08/18 15:45:52;;;;;;;;;;;;;;;13.48;100.00;99152.53;6150626;23;19917;-88
2022/08/18 15:48:19;;;;;;;;;;;;;;;13.29;100.00;99150.19;6149680;23;20108;-87
2022/08/18 15:50:48;;;;;;;;;;;;;;;13.50;100.00;99150.63;6148969;23;19938;-86
2022/08/18 15:53:18;;;;;;;;;;;;;;;13.35;100.00;99152.50;6149176;23;19948;-87
2022/08/18 15:55:43;;;;;;;;;;;;;;;13.36;100.00;99151.53;6148767;23;19916;-86
2022/08/18 15:58:11;;;;;;;;;;;;;;;13.35;100.00;99140.03;6149048;23;19940;-87
2022/08/18 16:06:23;;;;;;;;;;;;;;;13.27;100.00;99143.19;6094457;23;19926;-86
2022/08/18 16:11:58;;;;;;;;;;;;;;;13.33;100.00;99141.94;6186969;22;20002;-87
2022/08/18 16:14:23;;;;;;;;;;;;;;;13.22;100.00;99142.59;6249154;22;20347;-87
2022/08/18 16:17:11;;;;;;;;;;;;;;;13.38;100.00;99125.69;6273891;22;19914;-87
2022/08/18 16:19:36;;;;;;;;;;;;;;;13.28;100.00;99136.03;6246834;22;19916;-87
2022/08/18 16:22:36;;;;;;;;;;;;;;;;;;;;;
2022/08/18 16:28:12;;;;;;;;;;;;;;;13.32;100.00;99118.06;6237912;22;19919;-87
2022/08/18 16:33:12;;;;;;;;;;;;;;;13.33;100.00;99130.47;6117999;23;19928;-87
2022/08/18 16:35:47;;;;;;;;;;;;;;;13.46;100.00;99133.19;6094983;23;19921;-86
2022/08/18 16:38:12;;;;;;;;;;;;;;;13.33;100.00;99128.63;6120526;23;20237;-87
2022/08/18 16:40:39;;;;;;;;;;;;;;;13.29;100.00;99132.44;6093348;23;19913;-87
2022/08/18 16:43:06;;;;;;;;;;;;;;;13.40;100.00;99124.66;6095078;23;19913;-87
2022/08/18 16:49:07;;;;;;;;;;;;;;;13.41;100.00;99125.50;6120998;23;20352;-88
2022/08/18 16:55:46;;;;;;;;;;;;;;;13.30;100.00;99127.97;6120426;23;20584;-86
2022/08/18 17:08:43;;;;;;;;;;;;;;;13.34;100.00;99124.16;6117183;23;19921;-88
2022/08/18 17:16:21;;;;;;;;;;;;;;;13.15;100.00;99117.34;6120716;23;19925;-86
2022/08/18 17:24:30;;;;;;;;;;;;;;;13.34;100.00;99124.16;6110085;23;19925;-87
2022/08/18 17:29:33;;;;;;;;;;;;;;;13.21;100.00;99122.28;6155048;22;20326;-88
2022/08/18 17:32:01;;;;;;;;;;;;;;;13.21;100.00;99127.59;6308132;22;19929;-88
2022/08/18 17:34:59;;;;;;;;;;;;;;;13.15;100.00;99128.00;6279256;22;20232;-88
2022/08/18 17:40:05;;;;;;;;;;;;;;;13.18;100.00;99125.13;6152672;22;19925;-88
2022/08/18 17:42:32;;;;;;;;;;;;;;;13.21;100.00;99124.06;6124600;23;19956;-88
2022/08/18 17:45:52;;;;;;;;;;;;;;;;;;;;;
2022/08/18 17:48:29;;;;;;;;;;;;;;;13.22;100.00;99125.78;6149012;22;19925;-88
2022/08/18 17:53:38;;;;;;;;;;;;;;;13.23;100.00;99128.34;6151090;23;19982;-88
2022/08/18 17:59:10;;;;;;;;;;;;;;;13.25;100.00;99126.44;6150431;23;19958;-88
2022/08/18 18:01:42;;;;;;;;;;;;;;;13.18;100.00;99130.47;6125173;23;20298;-90
2022/08/18 18:04:07;;;;;;;;;;;;;;;13.24;100.00;99132.72;6149792;23;20332;-88
2022/08/18 18:09:07;;;;;;;;;;;;;;;13.10;100.00;99130.09;6142826;22;19925;-88
2022/08/18 18:11:51;;;;;;;;;;;;;;;13.32;100.00;99120.72;6125107;23;19923;-89
2022/08/18 18:14:25;;;;;;;;;;;;;;;13.18;100.00;99129.59;6125335;23;19909;-88
2022/08/18 18:17:07;;;;;;;;;;;;;;;13.27;100.00;99124.56;6151044;23;19924;-88
2022/08/18 18:19:34;;;;;;;;;;;;;;;13.28;100.00;99120.06;6123957;23;19909;-88
2022/08/18 18:22:09;;;;;;;;;;;;;;;13.25;100.00;99126.44;6123310;22;19917;-88
2022/08/18 18:24:49;;;;;;;;;;;;;;;13.22;100.00;99131.94;6149291;23;20367;-88
2022/08/18 18:27:22;;;;;;;;;;;;;;;13.14;100.00;99128.94;6285963;22;20335;-88
2022/08/18 18:30:03;;;;;;;;;;;;;;;13.33;100.00;99119.81;6279662;22;19913;-92
2022/08/18 18:32:54;;;;;;;;;;;;;;;13.25;100.00;99129.09;6279801;22;19988;-88
2022/08/18 18:35:27;;;;;;;;;;;;;;;13.25;100.00;99131.75;6149879;23;19927;-88
2022/08/18 18:38:10;;;;;;;;;;;;;;;13.24;100.00;99131.84;6150683;23;19973;-88
2022/08/18 18:43:28;;;;;;;;;;;;;;;15.04;100.00;99130.38;6112663;22;19920;-90
2022/08/18 18:46:21;;;;;;;;;;;;;;;14.40;100.00;99124.22;6149359;23;19921;-91
2022/08/18 18:49:00;;;;;;;;;;;;;;;;;;;;;
2022/08/18 18:51:35;;;;;;;;;;;;;;;;;;;;;
2022/08/18 18:54:05;;;;;;;;;;;;;;;13.22;100.00;99136.44;6151043;23;20000;-87
2022/08/18 18:56:56;;;;;;;;;;;;;;;13.39;100.00;99130.06;6124633;23;19913;-88
2022/08/18 18:59:42;;;;;;;;;;;;;;;13.27;100.00;99137.84;6175122;23;19916;-87
2022/08/18 19:03:08;;;;;;;;;;;;;;;13.43;100.00;99128.91;6216994;23;19916;-87
2022/08/18 19:11:40;;;;;;;;;;;;;;;13.41;100.00;99130.81;6151887;23;20349;-88
2022/08/18 19:17:28;;;;;;;;;;;;;;;13.31;100.00;99137.66;6035970;23;20240;-87
2022/08/18 19:20:14;;;;;;;;;;;;;;;13.27;100.00;99144.97;6034552;23;19920;-87
2022/08/18 19:22:56;;;;;;;;;;;;;;;13.09;100.00;99142.53;6111446;23;19913;-91
2022/08/18 19:33:48;;;;;;;;;;;;;;;13.34;100.00;99150.78;6149669;23;19916;-87
2022/08/18 19:42:12;;;;;;;;;;;;;;;;;;;;;
2022/08/18 19:48:27;;;;;;;;;;;;;;;13.33;100.00;99173.88;6013221;23;19934;-87
2022/08/18 19:51:07;;;;;;;;;;;;;;;13.13;100.00;99175.13;6003225;23;20000;-88
2022/08/18 19:54:02;;;;;;;;;;;;;;;13.34;100.00;99182.69;5980127;23;20006;-89
2022/08/18 19:57:02;;;;;;;;;;;;;;;13.20;100.00;99180.91;6048185;23;20237;-89
2022/08/18 20:04:59;;;;;;;;;;;;;;;;;;;;;
2022/08/18 20:07:46;;;;;;;;;;;;;;;;;;;;;
2022/08/18 20:10:34;;;;;;;;;;;;;;;;;;;;;
2022/08/18 20:16:09;;;;;;;;;;;;;;;13.17;100.00;99199.72;6089574;23;19917;-86
2022/08/18 20:18:40;;;;;;;;;;;;;;;12.99;100.00;99191.94;6148529;23;19912;-88
2022/08/18 20:21:19;;;;;;;;;;;;;;;13.22;100.00;99192.28;6151095;23;19909;-85
2022/08/18 20:24:04;;;;;;;;;;;;;;;13.15;100.00;99193.66;6151377;23;19992;-86
2022/08/18 20:26:51;;;;;;;;;;;;;;;;;;;;;
2022/08/18 20:29:42;;;;;;;;;;;;;;;13.13;100.00;99195.53;6151374;23;19999;-88
2022/08/18 20:32:35;;;;;;;;;;;;;;;13.03;100.00;99196.09;6125214;23;19958;-87
2022/08/18 20:35:26;;;;;;;;;;;;;;;12.83;100.00;99202.66;6124241;23;20240;-87
2022/08/18 20:38:14;;;;;;;;;;;;;;;13.12;100.00;99200.00;6125544;23;19920;-90
2022/08/18 20:40:50;;;;;;;;;;;;;;;12.96;100.00;99202.75;6106097;22;19916;-88
2022/08/18 20:43:25;;;;;;;;;;;;;;;12.79;100.00;99205.59;6125598;23;19917;-87
2022/08/18 20:46:13;;;;;;;;;;;;;;;13.05;100.00;99217.28;6125276;23;20496;-87
2022/08/18 20:49:04;;;;;;;;;;;;;;;12.88;100.00;99207.69;6123705;22;19913;-86
2022/08/18 20:51:42;;;;;;;;;;;;;;;;;;;;;
2022/08/18 20:54:43;;;;;;;;;;;;;;;12.97;100.00;99207.13;6151426;23;19984;-86
2022/08/18 20:57:11;;;;;;;;;;;;;;;12.80;100.00;99220.63;6151378;23;19919;-87
2022/08/18 20:59:40;;;;;;;;;;;;;;;12.74;100.00;99220.97;6125053;23;19951;-89
2022/08/18 21:02:22;;;;;;;;;;;;;;;12.92;100.00;99219.84;6125073;23;19921;-87
2022/08/18 21:04:55;;;;;;;;;;;;;;;12.76;100.00;99221.75;6147470;23;19917;-88
2022/08/18 21:07:23;;;;;;;;;;;;;;;12.70;100.00;99220.28;6181160;23;19912;-87
2022/08/18 21:10:15;;;;;;;;;;;;;;;12.79;100.00;99225.06;6181073;23;19908;-88
2022/08/18 21:12:46;;;;;;;;;;;;;;;12.78;100.00;99223.38;6180956;23;19912;-87
2022/08/18 21:15:16;;;;;;;;;;;;;;;12.90;100.00;99233.22;6181339;23;19908;-88
2022/08/18 21:17:43;;;;;;;;;;;;;;;12.90;100.00;99235.03;6155533;23;20294;-92
2022/08/18 21:20:12;;;;;;;;;;;;;;;12.68;100.00;99240.81;6179957;23;19915;-88
2022/08/18 21:22:40;;;;;;;;;;;;;;;12.85;100.00;99237.97;6180734;23;19912;-87
2022/08/18 21:25:09;;;;;;;;;;;;;;;12.68;100.00;99233.72;6179464;23;19922;-88
2022/08/18 21:27:39;;;;;;;;;;;;;;;12.89;100.00;99231.53;6179794;23;19999;-87
2022/08/18 21:30:14;;;;;;;;;;;;;;;12.77;100.00;99237.59;6179490;23;20359;-87
2022/08/18 21:32:41;;;;;;;;;;;;;;;12.64;100.00;99231.31;6179789;23;19927;-88
2022/08/18 21:35:21;;;;;;;;;;;;;;;12.83;100.00;99239.88;6178133;23;19913;-92
2022/08/18 21:38:11;;;;;;;;;;;;;;;12.73;100.00;99244.03;6181431;23;19913;-89
2022/08/18 21:41:32;;;;;;;;;;;;;;;12.73;100.00;99244.03;6179707;23;19916;-89
2022/08/18 21:44:41;;;;;;;;;;;;;;;12.91;100.00;99250.06;6130805;23;19912;-90
2022/08/18 21:47:05;;;;;;;;;;;;;;;13.51;100.00;99249.00;6177954;23;19924;-85
2022/08/18 21:49:32;;;;;;;;;;;;;;;12.99;100.00;99241.63;6177942;23;20026;-85
2022/08/18 21:51:58;;;;;;;;;;;;;;;12.98;100.00;99250.53;6180848;22;20347;-86
2022/08/18 21:54:27;;;;;;;;;;;;;;;12.79;100.00;99246.31;6180885;23;19916;-86
2022/08/18 21:57:11;;;;;;;;;;;;;;;12.79;100.00;99250.78;6180767;22;19919;-86
2022/08/18 21:59:56;;;;;;;;;;;;;;;12.78;100.00;99249.94;6180870;23;19916;-87
2022/08/18 22:02:21;;;;;;;;;;;;;;;12.61;100.00;99248.28;6180752;22;19913;-86
2022/08/18 22:04:47;;;;;;;;;;;;;;;12.76;100.00;99240.34;6155459;23;19928;-85
2022/08/18 22:07:14;;;;;;;;;;;;;;;12.65;100.00;99238.31;6150226;23;20296;-86
2022/08/18 22:15:55;;;;;;;;;;;;;;;12.67;100.00;99247.09;6151145;23;20474;-86
2022/08/18 22:18:38;;;;;;;;;;;;;;;12.51;100.00;99248.00;6149085;23;19920;-85
2022/08/18 22:21:07;;;;;;;;;;;;;;;12.76;100.00;99245.66;6150764;23;19932;-87
2022/08/18 22:26:28;;;;;;;;;;;;;;;12.44;100.00;99254.59;6151050;23;19919;-85
2022/08/18 22:28:56;;;;;;;;;;;;;;;12.64;100.00;99253.44;6150911;23;19948;-85
2022/08/18 22:31:22;;;;;;;;;;;;;;;12.54;100.00;99262.91;6150830;23;19916;-85